createdAt,value
2018-07-23T00:01:41.126Z,15.77
2018-07-23T00:04:10.635Z,16.37
2018-07-23T00:06:40.055Z,17.03
2018-07-23T00:09:09.440Z,16.47
2018-07-23T00:11:39.276Z,16.20
2018-07-23T00:14:08.669Z,16.10
2018-07-23T00:16:38.078Z,16.70
2018-07-23T00:19:07.488Z,17.17
2018-07-23T00:21:36.877Z,17.67
2018-07-23T00:24:07.468Z,17.07
2018-07-23T00:26:36.869Z,17.20
2018-07-23T00:29:06.202Z,17.10
2018-07-23T00:31:35.604Z,16.87
2018-07-23T00:34:05.021Z,17.17
2018-07-23T00:36:34.459Z,17.20
2018-07-23T00:39:06.061Z,16.40
2018-07-23T00:41:35.466Z,16.57
2018-07-23T00:44:05.331Z,18.17
2018-07-23T00:46:34.767Z,15.63
2018-07-23T00:49:04.147Z,17.07
2018-07-23T00:51:33.171Z,16.10
2018-07-23T00:54:02.565Z,15.87
2018-07-23T00:56:32.008Z,15.63
2018-07-23T00:59:01.377Z,16.00
2018-07-23T01:01:30.820Z,15.43
2018-07-23T01:04:00.147Z,14.77
2018-07-23T01:06:29.987Z,15.30
2018-07-23T01:08:59.493Z,15.47
2018-07-23T01:11:28.834Z,15.63
2018-07-23T01:13:58.903Z,14.80
2018-07-23T01:16:28.263Z,15.07
2018-07-23T01:18:57.679Z,15.17
2018-07-23T01:21:27.105Z,15.33
2018-07-23T01:23:56.469Z,15.30
2018-07-23T01:26:25.870Z,13.90
2018-07-23T01:28:55.278Z,13.87
2018-07-23T01:31:24.648Z,14.60
2018-07-23T01:33:54.027Z,15.10
2018-07-23T01:36:23.489Z,14.67
2018-07-23T01:38:52.910Z,14.50
2018-07-23T01:41:22.956Z,15.37
2018-07-23T01:43:52.298Z,16.00
2018-07-23T01:46:21.649Z,15.03
2018-07-23T01:48:50.996Z,14.73
2018-07-23T01:51:20.399Z,14.37
2018-07-23T01:53:49.742Z,16.40
2018-07-23T01:56:19.258Z,15.97
2018-07-23T01:58:48.617Z,15.50
2018-07-23T02:01:18.126Z,15.37
2018-07-23T02:03:47.458Z,15.40
2018-07-23T02:06:16.820Z,16.63
2018-07-23T02:08:46.154Z,17.43
2018-07-23T02:11:15.670Z,16.17
2018-07-23T02:13:45.143Z,16.17
2018-07-23T02:16:14.649Z,15.90
2018-07-23T02:18:43.989Z,14.03
2018-07-23T02:21:13.940Z,14.57
2018-07-23T02:23:43.403Z,15.13
2018-07-23T02:26:12.880Z,15.93
2018-07-23T02:28:42.254Z,16.70
2018-07-23T02:31:11.681Z,18.83
2018-07-23T02:33:41.031Z,19.73
2018-07-23T02:36:10.423Z,20.23
2018-07-23T02:38:39.806Z,21.07
2018-07-23T02:41:09.521Z,22.57
2018-07-23T02:43:38.884Z,23.83
2018-07-23T02:46:08.310Z,24.73
2018-07-23T02:48:37.740Z,25.27
2018-07-23T02:51:07.166Z,24.83
2018-07-23T02:53:37.201Z,26.23
2018-07-23T02:56:06.910Z,27.00
2018-07-23T02:58:36.380Z,27.43
2018-07-23T03:01:06.592Z,28.73
2018-07-23T03:03:36.250Z,26.80
2018-07-23T03:06:05.688Z,27.10
2018-07-23T03:08:34.739Z,27.60
2018-07-23T03:11:04.140Z,25.47
2018-07-23T03:13:34.155Z,27.10
2018-07-23T03:16:03.457Z,25.97
2018-07-23T03:18:32.801Z,26.87
2018-07-23T03:21:02.291Z,26.53
2018-07-23T03:23:31.717Z,24.13
2018-07-23T03:26:01.051Z,24.40
2018-07-23T03:28:30.454Z,25.67
2018-07-23T03:30:59.826Z,25.57
2018-07-23T03:33:29.226Z,26.67
2018-07-23T03:35:58.637Z,26.00
2018-07-23T03:38:28.103Z,24.17
2018-07-23T03:40:57.451Z,23.83
2018-07-23T03:43:26.787Z,24.97
2018-07-23T03:45:56.221Z,24.70
2018-07-23T03:48:25.637Z,23.57
2018-07-23T03:50:54.689Z,24.03
2018-07-23T03:53:24.098Z,23.90
2018-07-23T03:55:53.626Z,24.60
2018-07-23T03:58:23.001Z,24.57
2018-07-23T04:00:52.389Z,23.53
2018-07-23T04:03:21.738Z,22.30
2018-07-23T04:05:51.692Z,22.80
2018-07-23T04:08:21.112Z,22.77
2018-07-23T04:10:51.124Z,21.27
2018-07-23T04:13:20.457Z,21.10
2018-07-23T04:15:49.853Z,20.73
2018-07-23T04:18:19.272Z,20.57
2018-07-23T04:20:48.811Z,19.33
2018-07-23T04:23:18.201Z,19.43
2018-07-23T04:25:47.577Z,19.80
2018-07-23T04:28:16.912Z,20.27
2018-07-23T04:30:46.330Z,21.23
2018-07-23T04:33:15.685Z,18.97
2018-07-23T04:35:45.811Z,18.17
2018-07-23T04:38:15.181Z,18.40
2018-07-23T04:40:45.469Z,19.97
2018-07-23T04:43:14.829Z,18.77
2018-07-23T04:45:44.151Z,19.43
2018-07-23T04:48:13.517Z,18.47
2018-07-23T04:50:42.852Z,17.53
2018-07-23T04:53:11.973Z,18.00
2018-07-23T04:55:42.199Z,17.00
2018-07-23T04:58:11.572Z,17.73
2018-07-23T05:00:41.372Z,18.33
2018-07-23T05:03:10.791Z,16.67
2018-07-23T05:05:39.901Z,16.80
2018-07-23T05:08:09.323Z,16.03
2018-07-23T05:10:39.494Z,15.80
2018-07-23T05:13:09.493Z,16.60
2018-07-23T05:15:38.969Z,16.30
2018-07-23T05:18:08.404Z,16.53
2018-07-23T05:20:40.332Z,15.47
2018-07-23T05:23:10.228Z,15.03
2018-07-23T05:25:39.768Z,14.73
2018-07-23T05:28:10.064Z,14.67
2018-07-23T05:30:39.482Z,14.47
2018-07-23T05:33:09.620Z,15.43
2018-07-23T05:35:39.061Z,14.60
2018-07-23T05:38:08.867Z,14.37
2018-07-23T05:40:38.298Z,13.67
2018-07-23T05:43:08.110Z,13.80
2018-07-23T05:45:38.304Z,14.63
2018-07-23T05:48:07.967Z,13.83
2018-07-23T05:50:37.462Z,13.90
2018-07-23T05:53:06.974Z,14.10
2018-07-23T05:55:36.402Z,14.57
2018-07-23T05:58:05.886Z,13.27
2018-07-23T06:00:35.324Z,14.47
2018-07-23T06:03:06.618Z,13.63
2018-07-23T06:05:36.037Z,13.73
2018-07-23T06:08:05.874Z,14.83
2018-07-23T06:10:35.758Z,13.63
2018-07-23T06:13:05.287Z,13.07
2018-07-23T06:15:35.960Z,12.43
2018-07-23T06:18:05.581Z,13.20
2018-07-23T06:20:36.186Z,12.40
2018-07-23T06:23:05.667Z,12.37
2018-07-23T06:25:35.065Z,12.50
2018-07-23T06:28:04.679Z,12.03
2018-07-23T06:30:34.105Z,13.30
2018-07-23T06:33:03.179Z,12.30
2018-07-23T06:35:32.689Z,12.23
2018-07-23T06:38:02.097Z,13.07
2018-07-23T06:40:31.604Z,12.27
2018-07-23T06:43:01.026Z,12.10
2018-07-23T06:45:30.780Z,12.97
2018-07-23T06:48:00.321Z,12.50
2018-07-23T06:50:29.835Z,11.83
2018-07-23T06:52:59.535Z,12.67
2018-07-23T06:55:29.055Z,12.30
2018-07-23T06:57:59.619Z,13.30
2018-07-23T07:00:29.082Z,12.10
2018-07-23T07:02:58.545Z,12.17
2018-07-23T07:05:28.092Z,12.33
2018-07-23T07:07:59.958Z,12.27
2018-07-23T07:10:29.535Z,13.50
2018-07-23T07:13:00.276Z,13.00
2018-07-23T07:15:30.495Z,12.67
2018-07-23T07:17:59.886Z,13.23
2018-07-23T07:20:29.318Z,13.33
2018-07-23T07:22:59.372Z,13.43
2018-07-23T07:25:29.508Z,13.33
2018-07-23T07:27:58.940Z,14.70
2018-07-23T07:30:28.462Z,15.03
2018-07-23T07:32:58.003Z,14.63
2018-07-23T07:35:27.503Z,14.40
2018-07-23T07:37:56.988Z,16.00
2018-07-23T07:40:27.021Z,15.40
2018-07-23T07:42:56.882Z,15.60
2018-07-23T07:45:26.985Z,14.50
2018-07-23T07:47:56.505Z,14.33
2018-07-23T07:50:26.938Z,14.43
2018-07-23T07:52:56.791Z,15.00
2018-07-23T07:55:26.510Z,12.80
2018-07-23T07:57:56.627Z,13.57
2018-07-23T08:00:26.194Z,13.30
2018-07-23T08:02:55.632Z,13.03
2018-07-23T08:05:25.327Z,13.40
2018-07-23T08:07:55.636Z,13.33
2018-07-23T08:10:25.144Z,13.47
2018-07-23T08:12:54.604Z,13.50
2018-07-23T08:15:24.850Z,14.03
2018-07-23T08:17:54.742Z,13.10
2018-07-23T08:20:25.057Z,13.40
2018-07-23T08:22:54.432Z,14.30
2018-07-23T08:25:24.479Z,14.37
2018-07-23T08:27:53.921Z,12.83
2018-07-23T08:30:23.445Z,14.33
2018-07-23T08:32:52.894Z,13.90
2018-07-23T08:35:22.687Z,13.37
2018-07-23T08:37:52.084Z,13.40
2018-07-23T08:40:21.579Z,13.77
2018-07-23T08:42:51.881Z,13.90
2018-07-23T08:45:22.303Z,14.47
2018-07-23T08:47:51.877Z,14.50
2018-07-23T08:50:21.337Z,15.37
2018-07-23T08:52:50.727Z,15.03
2018-07-23T08:55:20.171Z,15.60
2018-07-23T08:57:49.640Z,14.27
2018-07-23T09:00:19.276Z,14.80
2018-07-23T09:02:49.390Z,15.10
2018-07-23T09:05:18.851Z,14.07
2018-07-23T09:07:48.251Z,13.93
2018-07-23T09:10:18.331Z,13.40
2018-07-23T09:12:47.766Z,14.17
2018-07-23T09:15:18.932Z,14.33
2018-07-23T09:17:48.386Z,13.53
2018-07-23T09:20:17.892Z,13.77
2018-07-23T09:22:48.170Z,13.97
2018-07-23T09:25:17.616Z,13.47
2018-07-23T09:27:47.031Z,14.07
2018-07-23T09:30:54.117Z,14.00
2018-07-23T09:33:24.604Z,14.10
2018-07-23T09:35:54.528Z,14.27
2018-07-23T09:38:24.852Z,15.50
2018-07-23T09:40:54.342Z,13.47
2018-07-23T09:43:23.872Z,15.33
2018-07-23T09:45:53.302Z,15.60
2018-07-23T09:48:22.782Z,15.10
2018-07-23T09:50:52.206Z,15.60
2018-07-23T09:53:22.252Z,16.70
2018-07-23T09:55:52.055Z,17.73
2018-07-23T09:58:21.487Z,16.37
2018-07-23T10:00:55.627Z,15.83
2018-07-23T10:03:25.615Z,15.30
2018-07-23T10:05:54.824Z,16.90
2018-07-23T10:08:24.228Z,15.57
2018-07-23T10:10:53.851Z,14.60
2018-07-23T10:13:24.378Z,15.37
2018-07-23T10:15:53.834Z,14.63
2018-07-23T10:18:23.313Z,15.03
2018-07-23T10:20:53.053Z,14.50
2018-07-23T10:23:24.049Z,15.03
2018-07-23T10:25:53.865Z,15.13
2018-07-23T10:28:23.591Z,15.87
2018-07-23T10:30:53.409Z,14.50
2018-07-23T10:33:22.963Z,15.87
2018-07-23T10:35:53.211Z,14.70
2018-07-23T10:38:23.393Z,13.60
2018-07-23T10:40:52.801Z,12.50
2018-07-23T10:43:22.179Z,13.67
2018-07-23T10:45:51.641Z,13.67
2018-07-23T10:48:21.134Z,14.97
2018-07-23T10:50:50.501Z,14.20
2018-07-23T10:53:19.891Z,13.00
2018-07-23T10:55:49.258Z,12.70
2018-07-23T10:58:19.260Z,12.43
2018-07-23T11:00:48.684Z,14.27
2018-07-23T11:03:18.537Z,12.77
2018-07-23T11:05:47.964Z,13.17
2018-07-23T11:08:17.440Z,14.40
2018-07-23T11:10:46.869Z,13.83
2018-07-23T11:13:17.314Z,13.70
2018-07-23T11:15:46.785Z,14.17
2018-07-23T11:18:16.135Z,12.93
2018-07-23T11:20:45.599Z,13.40
2018-07-23T11:23:15.002Z,12.20
2018-07-23T11:25:44.227Z,12.50
2018-07-23T11:28:13.691Z,12.70
2018-07-23T11:30:42.997Z,10.90
2018-07-23T11:33:12.489Z,11.57
2018-07-23T11:35:41.960Z,11.47
2018-07-23T11:38:12.217Z,11.33
2018-07-23T11:40:41.679Z,12.00
2018-07-23T11:43:12.000Z,12.10
2018-07-23T11:45:41.423Z,10.93
2018-07-23T11:48:10.852Z,11.67
2018-07-23T11:50:40.259Z,12.60
2018-07-23T11:53:09.587Z,12.37
2018-07-23T11:55:39.000Z,12.83
2018-07-23T11:58:08.472Z,12.20
2018-07-23T12:00:38.588Z,12.07
2018-07-23T12:03:08.162Z,11.43
2018-07-23T12:05:37.935Z,11.70
2018-07-23T12:08:07.414Z,12.60
2018-07-23T12:10:36.931Z,12.40
2018-07-23T12:13:06.610Z,12.50
2018-07-23T12:15:35.980Z,12.13
2018-07-23T12:18:06.161Z,12.30
2018-07-23T12:20:35.627Z,11.90
2018-07-23T12:23:05.003Z,11.07
2018-07-23T12:25:35.134Z,10.37
2018-07-23T12:28:04.643Z,10.23
2018-07-23T12:30:34.114Z,11.27
2018-07-23T12:33:03.537Z,10.93
2018-07-23T12:35:33.417Z,11.70
2018-07-23T12:38:02.849Z,10.43
2018-07-23T12:40:32.295Z,11.13
2018-07-23T12:43:01.767Z,10.83
2018-07-23T12:45:31.252Z,10.33
2018-07-23T12:48:00.726Z,9.43
2018-07-23T12:50:30.741Z,11.37
2018-07-23T12:53:01.038Z,12.07
2018-07-23T12:55:30.441Z,11.10
2018-07-23T12:57:59.873Z,11.77
2018-07-23T13:00:29.311Z,12.50
2018-07-23T13:02:58.805Z,12.40
2018-07-23T13:05:31.955Z,10.10
2018-07-23T13:08:03.745Z,10.60
2018-07-23T13:10:33.162Z,9.97
2018-07-23T13:13:02.597Z,10.13
2018-07-23T13:15:31.918Z,9.37
2018-07-23T13:18:01.292Z,10.90
2018-07-23T13:20:30.800Z,11.70
2018-07-23T13:23:00.166Z,10.40
2018-07-23T13:25:29.635Z,10.27
2018-07-23T13:27:59.480Z,10.30
2018-07-23T13:30:29.056Z,10.80
2018-07-23T13:32:58.536Z,9.90
2018-07-23T13:35:28.408Z,11.53
2018-07-23T13:37:57.803Z,10.93
2018-07-23T13:40:27.092Z,10.83
2018-07-23T13:42:56.522Z,10.77
2018-07-23T13:45:25.908Z,10.20
2018-07-23T13:47:55.434Z,11.00
2018-07-23T13:50:25.024Z,11.20
2018-07-23T13:52:54.475Z,11.00
2018-07-23T13:55:23.872Z,10.37
2018-07-23T13:57:53.276Z,9.63
2018-07-23T14:00:22.914Z,10.63
2018-07-23T14:02:53.036Z,10.43
2018-07-23T14:05:23.057Z,9.70
2018-07-23T14:07:52.482Z,9.77
2018-07-23T14:10:22.403Z,9.33
2018-07-23T14:12:52.964Z,9.27
2018-07-23T14:15:24.407Z,10.10
2018-07-23T14:17:54.436Z,9.57
2018-07-23T14:20:23.981Z,10.03
2018-07-23T14:22:53.362Z,8.90
2018-07-23T14:25:23.793Z,9.40
2018-07-23T14:27:53.263Z,9.53
2018-07-23T14:30:22.677Z,8.93
2018-07-23T14:32:52.139Z,9.00
2018-07-23T14:35:21.807Z,8.60
2018-07-23T14:37:52.193Z,8.80
2018-07-23T14:40:22.097Z,8.83
2018-07-23T14:42:52.920Z,9.13
2018-07-23T14:45:23.201Z,9.40
2018-07-23T14:47:53.387Z,8.63
2018-07-23T14:50:23.833Z,8.70
2018-07-23T14:52:54.079Z,8.13
2018-07-23T14:55:24.966Z,8.40
2018-07-23T14:57:54.473Z,8.53
2018-07-23T15:00:23.875Z,8.53
2018-07-23T15:02:59.342Z,9.30
2018-07-23T15:05:28.683Z,8.77
2018-07-23T15:07:58.911Z,8.43
2018-07-23T15:10:28.382Z,7.57
2018-07-23T15:12:58.440Z,8.17
2018-07-23T15:15:27.802Z,8.17
2018-07-23T15:17:57.850Z,8.00
2018-07-23T15:20:27.306Z,7.40
2018-07-23T15:22:56.746Z,7.27
2018-07-23T15:25:26.199Z,7.30
2018-07-23T15:27:55.569Z,7.90
2018-07-23T15:30:25.162Z,7.07
2018-07-23T15:32:54.589Z,6.37
2018-07-23T15:35:23.605Z,6.40
2018-07-23T15:37:53.057Z,6.47
2018-07-23T15:40:22.494Z,6.77
2018-07-23T15:42:52.016Z,7.40
2018-07-23T15:45:22.142Z,7.40
2018-07-23T15:47:52.223Z,8.13
2018-07-23T15:50:22.183Z,7.10
2018-07-23T15:52:51.662Z,6.47
2018-07-23T15:55:21.837Z,7.67
2018-07-23T15:57:51.165Z,6.80
2018-07-23T16:00:20.561Z,6.83
2018-07-23T16:02:49.951Z,7.07
2018-07-23T16:05:19.411Z,7.10
2018-07-23T16:07:48.673Z,7.30
2018-07-23T16:10:18.466Z,6.90
2018-07-23T16:12:47.889Z,7.70
2018-07-23T16:15:17.290Z,6.60
2018-07-23T16:17:46.708Z,6.70
2018-07-23T16:20:16.146Z,7.10
2018-07-23T16:22:45.550Z,6.40
2018-07-23T16:25:15.051Z,6.93
2018-07-23T16:27:44.454Z,6.93
2018-07-23T16:30:15.003Z,6.83
2018-07-23T16:32:44.496Z,7.10
2018-07-23T16:35:14.246Z,6.83
2018-07-23T16:37:43.691Z,7.40
2018-07-23T16:40:13.745Z,7.60
2018-07-23T16:42:43.250Z,7.20
2018-07-23T16:45:12.638Z,6.30
2018-07-23T16:47:42.147Z,6.17
2018-07-23T16:50:11.559Z,6.03
2018-07-23T16:52:41.744Z,6.23
2018-07-23T16:55:11.172Z,6.13
2018-07-23T16:57:40.550Z,6.13
2018-07-23T17:00:09.900Z,6.47
2018-07-23T17:02:39.330Z,7.43
2018-07-23T17:05:08.782Z,6.80
2018-07-23T17:07:38.186Z,7.17
2018-07-23T17:10:07.585Z,6.90
2018-07-23T17:12:37.055Z,7.53
2018-07-23T17:15:07.103Z,7.70
2018-07-23T17:17:36.594Z,7.77
2018-07-23T17:20:06.913Z,7.37
2018-07-23T17:22:37.093Z,7.83
2018-07-23T17:25:06.548Z,7.23
2018-07-23T17:27:35.977Z,7.33
2018-07-23T17:30:05.648Z,7.77
2018-07-23T17:32:35.162Z,8.10
2018-07-23T17:35:05.081Z,7.83
2018-07-23T17:40:36.300Z,8.57
2018-07-23T17:43:08.393Z,8.23
2018-07-23T17:45:37.969Z,8.43
2018-07-23T17:48:31.364Z,8.93
2018-07-23T17:51:05.328Z,8.90
2018-07-23T17:53:35.163Z,8.97
2018-07-23T17:56:05.816Z,8.37
2018-07-23T17:58:38.733Z,8.33
2018-07-23T18:01:08.829Z,8.27
2018-07-23T18:03:38.421Z,6.90
2018-07-23T18:06:11.835Z,6.97
2018-07-23T18:08:51.219Z,7.23
2018-07-23T18:11:21.813Z,8.63
2018-07-23T18:16:53.393Z,9.70
2018-07-23T18:19:22.989Z,10.13
2018-07-23T18:21:52.567Z,12.83
2018-07-23T18:24:25.878Z,12.67
2018-07-23T18:27:01.487Z,11.50
2018-07-23T18:29:31.813Z,9.80
2018-07-23T18:32:05.656Z,10.13
2018-07-23T18:34:46.920Z,9.90
2018-07-23T18:37:19.242Z,10.80
2018-07-23T18:39:53.325Z,11.53
2018-07-23T18:42:23.865Z,11.27
2018-07-23T18:44:53.996Z,12.03
2018-07-23T18:47:23.558Z,11.23
2018-07-23T18:49:59.689Z,12.37
2018-07-23T18:52:30.473Z,10.90
2018-07-23T18:55:02.414Z,11.50
2018-07-23T18:57:32.409Z,11.80
2018-07-23T19:00:01.823Z,12.60
2018-07-23T19:02:32.975Z,12.43
2018-07-23T19:05:02.778Z,12.90
2018-07-23T19:07:33.257Z,12.93
2018-07-23T19:10:03.730Z,13.23
2018-07-23T19:12:34.151Z,13.80
2018-07-23T19:15:04.198Z,14.67
2018-07-23T19:17:34.655Z,16.27
2018-07-23T19:20:04.611Z,14.50
2018-07-23T19:22:40.371Z,13.93
2018-07-23T19:25:11.306Z,14.40
2018-07-23T19:43:46.124Z,13.97
2018-07-23T19:46:16.466Z,13.77
2018-07-23T19:48:46.952Z,14.43
2018-07-23T19:51:16.553Z,12.20
2018-07-23T19:53:46.747Z,12.53
2018-07-23T19:56:16.311Z,10.30
2018-07-23T19:58:46.473Z,10.80
2018-07-23T20:01:17.969Z,8.77
2018-07-23T20:03:47.542Z,9.23
2018-07-23T20:06:20.891Z,8.90
2018-07-23T20:08:56.153Z,8.70
2018-07-23T20:11:27.289Z,8.83
2018-07-23T20:13:57.422Z,8.67
2018-07-23T20:16:26.892Z,8.60
2018-07-23T20:18:56.335Z,9.23
2018-07-23T20:21:26.973Z,9.30
2018-07-23T20:24:05.985Z,8.97
2018-07-23T20:26:37.919Z,8.87
2018-07-23T20:29:09.468Z,9.70
2018-07-23T20:31:39.029Z,9.87
2018-07-23T20:34:10.083Z,9.07
2018-07-23T20:36:44.086Z,9.43
2018-07-23T20:39:14.866Z,9.07
2018-07-23T20:41:55.575Z,8.67
2018-07-23T20:44:25.593Z,8.93
2018-07-23T20:46:54.986Z,8.63
2018-07-23T20:49:24.400Z,8.90
2018-07-23T20:51:54.823Z,9.30
2018-07-23T20:54:24.840Z,8.73
2018-07-23T20:56:54.267Z,8.57
2018-07-23T20:59:23.648Z,8.37
2018-07-23T21:01:53.465Z,8.87
2018-07-23T21:04:23.509Z,8.07
2018-07-23T21:06:52.938Z,8.37
2018-07-23T21:09:22.277Z,8.50
2018-07-23T21:11:54.124Z,9.10
2018-07-23T21:14:23.748Z,8.30
2018-07-23T21:16:53.160Z,8.80
2018-07-23T21:19:22.687Z,8.60
2018-07-23T21:21:52.112Z,8.37
2018-07-23T21:24:21.551Z,8.70
2018-07-23T21:26:51.491Z,8.97
2018-07-23T21:29:21.277Z,9.23
2018-07-23T21:31:52.871Z,8.97
2018-07-23T21:34:22.299Z,9.00
2018-07-23T21:36:51.887Z,9.40
2018-07-23T21:39:21.416Z,9.03
2018-07-23T21:41:55.123Z,9.27
2018-07-23T21:44:29.181Z,9.33
2018-07-23T21:46:59.029Z,8.93
2018-07-23T21:49:28.514Z,8.57
2018-07-23T21:51:58.110Z,9.23
2018-07-23T21:54:29.476Z,9.13
2018-07-23T21:56:59.402Z,9.00
2018-07-23T21:59:28.841Z,9.73
2018-07-23T22:01:58.379Z,9.57
2018-07-23T22:04:28.300Z,9.87
2018-07-23T22:06:57.720Z,9.40
2018-07-23T22:09:27.816Z,9.47
2018-07-23T22:11:57.923Z,9.23
2018-07-23T22:14:27.938Z,9.30
2018-07-23T22:16:58.014Z,9.37
2018-07-23T22:19:27.424Z,9.30
2018-07-23T22:21:56.898Z,9.50
2018-07-23T22:24:26.684Z,10.03
2018-07-23T22:26:57.333Z,9.57
2018-07-23T22:29:26.746Z,10.50
2018-07-23T22:31:56.268Z,10.30
2018-07-23T22:34:26.135Z,10.17
2018-07-23T22:36:55.645Z,9.77
2018-07-23T22:39:29.705Z,10.33
2018-07-23T22:41:59.252Z,9.83
2018-07-23T22:44:28.632Z,10.50
2018-07-23T22:46:58.216Z,9.97
2018-07-23T22:49:27.675Z,8.70
2018-07-23T22:51:57.166Z,10.57
2018-07-23T22:54:26.536Z,10.73
2018-07-23T22:56:56.105Z,11.60
2018-07-23T22:59:25.465Z,10.87
2018-07-23T23:01:54.955Z,10.73
2018-07-23T23:04:28.183Z,11.27
2018-07-23T23:06:57.645Z,9.70
2018-07-23T23:09:26.769Z,9.80
2018-07-23T23:11:56.133Z,9.40
2018-07-23T23:14:25.581Z,10.40
2018-07-23T23:16:55.065Z,9.23
2018-07-23T23:19:24.476Z,9.37
2018-07-23T23:21:53.949Z,12.23
2018-07-23T23:24:23.377Z,11.83
2018-07-23T23:26:53.380Z,11.53
2018-07-23T23:29:24.568Z,11.03
2018-07-23T23:31:54.076Z,9.30
2018-07-23T23:34:23.672Z,8.60
2018-07-23T23:36:53.050Z,8.30
2018-07-23T23:39:22.470Z,8.20
2018-07-23T23:41:53.214Z,9.10
2018-07-23T23:44:22.666Z,9.53
2018-07-23T23:46:52.692Z,9.93
2018-07-23T23:49:22.296Z,10.23
2018-07-23T23:51:52.330Z,12.40
2018-07-23T23:54:21.822Z,12.27
2018-07-23T23:56:51.254Z,13.83
2018-07-23T23:59:25.933Z,11.87
